createdAt,value
2022-12-11T00:00:07.993Z,11.55
2022-12-11T00:02:36.342Z,12.63
2022-12-11T00:05:04.781Z,13.38
2022-12-11T00:07:33.140Z,12.13
2022-12-11T00:10:02.808Z,12.60
2022-12-11T00:12:33.178Z,13.65
2022-12-11T00:15:01.499Z,12.65
2022-12-11T00:17:29.817Z,12.82
2022-12-11T00:19:58.137Z,12.35
2022-12-11T00:22:26.453Z,13.02
2022-12-11T00:24:54.769Z,12.32
2022-12-11T00:27:24.497Z,12.10
2022-12-11T00:29:52.841Z,13.23
2022-12-11T00:32:22.161Z,12.15
2022-12-11T00:34:50.466Z,11.57
2022-12-11T00:37:18.787Z,12.85
2022-12-11T00:39:47.320Z,12.98
2022-12-11T00:42:15.645Z,12.00
2022-12-11T00:44:45.437Z,11.98
2022-12-11T00:47:13.780Z,12.60
2022-12-11T00:49:45.176Z,12.45
2022-12-11T00:52:18.342Z,11.98
2022-12-11T00:54:46.800Z,11.90
2022-12-11T00:57:15.149Z,11.40
2022-12-11T00:59:44.784Z,12.45
2022-12-11T01:02:13.147Z,13.05
2022-12-11T01:04:41.494Z,12.93
2022-12-11T01:07:09.778Z,12.90
2022-12-11T01:09:55.129Z,12.35
2022-12-11T01:12:23.475Z,13.07
2022-12-11T01:14:53.509Z,11.70
2022-12-11T01:17:21.902Z,12.68
2022-12-11T01:19:50.216Z,13.70
2022-12-11T01:22:18.548Z,12.93
2022-12-11T01:24:46.899Z,14.02
2022-12-11T01:27:15.222Z,12.18
2022-12-11T01:29:43.543Z,13.20
2022-12-11T01:32:13.203Z,12.35
2022-12-11T01:34:41.503Z,13.55
2022-12-11T01:37:09.833Z,14.20
2022-12-11T01:39:38.778Z,13.23
2022-12-11T01:42:10.256Z,13.48
2022-12-11T01:44:57.328Z,12.93
2022-12-11T01:47:27.063Z,12.18
2022-12-11T01:49:55.382Z,12.85
2022-12-11T01:52:23.947Z,12.85
2022-12-11T01:54:52.904Z,13.85
2022-12-11T01:57:21.226Z,12.18
2022-12-11T01:59:49.626Z,12.23
2022-12-11T02:02:20.560Z,12.50
2022-12-11T02:04:50.321Z,12.45
2022-12-11T02:07:18.722Z,14.55
2022-12-11T02:09:48.205Z,13.73
2022-12-11T02:12:21.113Z,12.07
2022-12-11T02:14:55.379Z,13.45
2022-12-11T02:17:25.999Z,14.38
2022-12-11T02:19:59.753Z,14.20
2022-12-11T02:22:29.992Z,12.88
2022-12-11T02:25:04.565Z,14.98
2022-12-11T02:27:36.542Z,14.85
2022-12-11T02:30:08.009Z,13.25
2022-12-11T02:32:39.335Z,12.73
2022-12-11T02:35:10.844Z,13.05
2022-12-11T02:37:40.612Z,13.30
2022-12-11T02:40:12.210Z,13.40
2022-12-11T02:42:41.988Z,12.88
2022-12-11T02:45:13.054Z,12.85
2022-12-11T02:47:42.031Z,13.95
2022-12-11T02:50:13.226Z,13.90
2022-12-11T02:52:43.513Z,12.52
2022-12-11T02:55:13.543Z,13.32
2022-12-11T02:57:44.708Z,13.57
2022-12-11T03:00:16.621Z,13.63
2022-12-11T03:02:45.447Z,13.85
2022-12-11T03:05:14.379Z,14.70
2022-12-11T03:07:44.119Z,13.57
2022-12-11T03:10:14.460Z,14.73
2022-12-11T03:12:46.985Z,14.82
2022-12-11T03:15:20.354Z,14.77
2022-12-11T03:17:54.423Z,13.70
2022-12-11T03:20:27.448Z,14.52
2022-12-11T03:22:59.560Z,13.80
2022-12-11T03:25:32.415Z,13.32
2022-12-11T03:28:05.034Z,14.57
2022-12-11T03:30:37.218Z,13.75
2022-12-11T03:33:08.165Z,12.90
2022-12-11T03:35:38.711Z,13.10
2022-12-11T03:38:08.150Z,13.88
2022-12-11T03:40:37.811Z,13.75
2022-12-11T03:43:06.855Z,14.50
2022-12-11T03:45:37.212Z,13.98
2022-12-11T03:48:07.128Z,13.60
2022-12-11T03:50:38.347Z,13.13
2022-12-11T03:53:06.900Z,14.65
2022-12-11T03:55:37.950Z,13.63
2022-12-11T03:58:06.416Z,14.38
2022-12-11T04:00:34.721Z,14.15
2022-12-11T04:03:14.427Z,15.13
2022-12-11T04:05:44.113Z,14.10
2022-12-11T04:08:12.739Z,13.95
2022-12-11T04:10:41.121Z,15.40
2022-12-11T04:13:32.472Z,15.05
2022-12-11T04:15:59.874Z,15.45
2022-12-11T04:18:47.197Z,14.60
2022-12-11T04:21:39.096Z,15.20
2022-12-11T04:24:31.141Z,13.75
2022-12-11T04:26:59.456Z,15.30
2022-12-11T04:29:27.801Z,14.30
2022-12-11T04:31:56.194Z,14.85
2022-12-11T04:34:25.838Z,14.88
2022-12-11T04:36:54.145Z,15.82
2022-12-11T04:39:22.427Z,14.77
2022-12-11T04:41:50.762Z,14.05
2022-12-11T04:44:19.052Z,15.15
2022-12-11T04:46:47.426Z,14.05
2022-12-11T04:49:15.750Z,14.73
2022-12-11T04:51:45.366Z,14.85
2022-12-11T04:54:13.686Z,14.98
2022-12-11T04:56:41.962Z,15.25
2022-12-11T04:59:10.243Z,14.38
2022-12-11T05:01:38.665Z,14.63
2022-12-11T05:04:07.034Z,14.25
2022-12-11T05:06:35.372Z,14.35
2022-12-11T05:09:05.185Z,15.45
2022-12-11T05:11:33.510Z,13.65
2022-12-11T05:14:01.817Z,14.13
2022-12-11T05:16:30.202Z,12.93
2022-12-11T05:18:58.602Z,14.77
2022-12-11T05:21:31.666Z,15.00
2022-12-11T05:24:04.431Z,15.07
2022-12-11T05:26:32.746Z,14.90
2022-12-11T05:29:01.067Z,13.77
2022-12-11T05:31:29.805Z,14.68
2022-12-11T05:33:58.103Z,15.05
2022-12-11T05:36:44.952Z,14.20
2022-12-11T05:39:14.607Z,13.68
2022-12-11T05:41:43.022Z,14.05
2022-12-11T05:44:13.118Z,15.48
2022-12-11T05:46:41.897Z,13.48
2022-12-11T05:49:20.027Z,15.38
2022-12-11T05:51:48.731Z,14.27
2022-12-11T05:54:18.684Z,15.30
2022-12-11T05:56:47.008Z,15.23
2022-12-11T05:59:20.548Z,16.50
2022-12-11T06:01:48.960Z,13.43
2022-12-11T06:04:17.317Z,15.35
2022-12-11T06:06:45.690Z,15.00
2022-12-11T06:09:15.675Z,14.18
2022-12-11T06:11:45.352Z,16.13
2022-12-11T06:14:14.303Z,15.45
2022-12-11T06:16:42.650Z,15.50
2022-12-11T06:19:14.711Z,14.95
2022-12-11T06:21:43.803Z,16.15
2022-12-11T06:24:12.290Z,15.05
2022-12-11T06:26:43.423Z,15.32
2022-12-11T06:29:13.315Z,15.70
2022-12-11T06:31:42.831Z,14.70
2022-12-11T06:34:12.815Z,14.70
2022-12-11T06:36:41.785Z,15.57
2022-12-11T06:39:10.123Z,14.95
2022-12-11T06:41:44.362Z,16.20
2022-12-11T06:44:14.013Z,14.45
2022-12-11T06:46:42.370Z,17.05
2022-12-11T06:49:10.653Z,15.38
2022-12-11T06:51:39.107Z,14.98
2022-12-11T06:54:07.460Z,15.43
2022-12-11T06:56:36.353Z,15.60
2022-12-11T06:59:07.456Z,14.70
2022-12-11T07:01:37.451Z,15.10
2022-12-11T07:04:05.829Z,16.13
2022-12-11T07:07:03.043Z,14.90
2022-12-11T07:09:31.376Z,16.15
2022-12-11T07:12:00.648Z,15.95
2022-12-11T07:14:28.921Z,16.67
2022-12-11T07:16:58.604Z,15.80
2022-12-11T07:19:27.322Z,16.23
2022-12-11T07:21:55.631Z,15.50
2022-12-11T07:24:23.926Z,16.35
2022-12-11T07:26:54.947Z,16.00
2022-12-11T07:29:23.556Z,15.80
2022-12-11T07:31:51.946Z,15.88
2022-12-11T07:34:21.589Z,15.63
2022-12-11T07:36:49.862Z,16.38
2022-12-11T07:39:18.195Z,16.45
2022-12-11T07:41:47.690Z,17.58
2022-12-11T07:44:17.920Z,15.13
2022-12-11T07:46:46.219Z,16.98
2022-12-11T07:49:14.560Z,17.38
2022-12-11T07:51:45.011Z,17.00
2022-12-11T07:54:16.634Z,15.70
2022-12-11T07:56:49.789Z,17.98
2022-12-11T07:59:21.848Z,18.15
2022-12-11T08:01:50.173Z,19.40
2022-12-11T08:04:18.477Z,18.85
2022-12-11T08:06:48.104Z,18.70
2022-12-11T08:09:20.952Z,17.67
2022-12-11T08:11:50.454Z,19.58
2022-12-11T08:14:19.520Z,18.55
2022-12-11T08:16:51.800Z,16.10
2022-12-11T08:19:20.827Z,18.48
2022-12-11T08:21:50.961Z,18.27
2022-12-11T08:24:20.775Z,18.60
2022-12-11T08:26:49.550Z,17.73
2022-12-11T08:29:17.837Z,18.05
2022-12-11T08:31:46.143Z,18.63
2022-12-11T08:34:14.417Z,17.20
2022-12-11T08:36:43.791Z,19.92
2022-12-11T08:39:13.433Z,16.40
2022-12-11T08:41:41.824Z,16.67
2022-12-11T08:44:16.238Z,18.52
2022-12-11T08:46:44.814Z,19.27
2022-12-11T08:49:13.112Z,17.38
2022-12-11T08:51:41.444Z,17.90
2022-12-11T08:54:10.980Z,19.42
2022-12-11T08:56:40.670Z,22.30
2022-12-11T08:59:08.974Z,19.45
2022-12-11T09:01:37.327Z,18.73
2022-12-11T09:04:05.732Z,18.30
2022-12-11T09:06:37.856Z,18.83
2022-12-11T09:09:06.596Z,17.92
2022-12-11T09:11:56.590Z,17.70
2022-12-11T09:14:24.885Z,17.13
2022-12-11T09:16:53.195Z,17.38
2022-12-11T09:19:21.518Z,17.20
2022-12-11T09:21:50.118Z,18.38
2022-12-11T09:24:18.425Z,17.83
2022-12-11T09:26:47.134Z,17.33
2022-12-11T09:29:16.847Z,17.70
2022-12-11T09:31:46.383Z,19.25
2022-12-11T09:34:15.145Z,18.75
2022-12-11T09:36:44.600Z,18.75
2022-12-11T09:39:13.718Z,18.25
2022-12-11T09:41:45.962Z,18.50
2022-12-11T09:44:21.517Z,16.55
2022-12-11T09:46:50.538Z,17.92
2022-12-11T09:49:27.595Z,19.38
2022-12-11T09:52:02.086Z,17.33
2022-12-11T09:54:30.447Z,18.20
2022-12-11T09:57:01.934Z,20.10
2022-12-11T09:59:35.546Z,18.27
2022-12-11T10:02:17.079Z,18.83
2022-12-11T10:04:51.376Z,18.25
2022-12-11T10:07:23.183Z,17.98
2022-12-11T10:09:53.329Z,23.70
2022-12-11T10:12:29.790Z,19.17
2022-12-11T10:15:08.832Z,18.27
2022-12-11T10:17:38.805Z,18.25
2022-12-11T10:20:13.041Z,18.30
2022-12-11T10:22:41.584Z,20.23
2022-12-11T10:25:15.790Z,19.23
2022-12-11T10:27:45.067Z,20.20
2022-12-11T10:30:17.982Z,18.70
2022-12-11T10:32:51.916Z,19.58
2022-12-11T10:35:22.769Z,19.27
2022-12-11T10:37:51.348Z,18.52
2022-12-11T10:40:20.035Z,18.60
2022-12-11T10:43:06.627Z,18.98
2022-12-11T10:45:36.305Z,17.83
2022-12-11T10:48:05.386Z,18.05
2022-12-11T10:50:33.979Z,18.38
2022-12-11T10:53:02.406Z,18.40
2022-12-11T10:55:32.524Z,17.25
2022-12-11T10:58:02.126Z,18.27
2022-12-11T11:00:38.059Z,19.65
2022-12-11T11:03:07.917Z,19.58
2022-12-11T11:05:39.204Z,18.95
2022-12-11T11:08:15.057Z,18.23
2022-12-11T11:10:53.902Z,19.02
2022-12-11T11:13:24.034Z,19.27
2022-12-11T11:16:00.244Z,19.45
2022-12-11T11:18:29.673Z,19.33
2022-12-11T11:20:58.321Z,20.50
2022-12-11T11:23:27.116Z,19.10
2022-12-11T11:25:56.388Z,19.58
2022-12-11T11:28:26.575Z,20.65
2022-12-11T11:31:04.124Z,19.52
2022-12-11T11:33:33.134Z,17.55
2022-12-11T11:36:03.306Z,18.40
2022-12-11T11:38:33.387Z,18.30
2022-12-11T11:41:11.573Z,19.33
2022-12-11T11:43:46.397Z,17.85
2022-12-11T11:46:19.751Z,18.00
2022-12-11T11:48:52.437Z,19.20
2022-12-11T11:51:24.884Z,19.45
2022-12-11T11:53:56.208Z,19.65
2022-12-11T11:56:26.803Z,18.95
2022-12-11T11:59:02.332Z,16.98
2022-12-11T12:01:36.275Z,16.13
2022-12-11T12:04:08.608Z,14.75
2022-12-11T12:06:50.551Z,15.23
2022-12-11T12:09:32.971Z,14.25
2022-12-11T12:12:12.616Z,14.65
2022-12-11T12:14:57.050Z,15.75
2022-12-11T12:17:36.133Z,13.20
2022-12-11T12:20:11.553Z,14.32
2022-12-11T12:22:50.630Z,15.07
2022-12-11T12:25:21.523Z,13.27
2022-12-11T12:27:55.878Z,13.68
2022-12-11T12:30:24.386Z,13.70
2022-12-11T12:33:10.630Z,13.95
2022-12-11T12:35:41.724Z,13.85
2022-12-11T12:38:15.094Z,14.00
2022-12-11T12:40:49.412Z,13.45
2022-12-11T12:43:32.604Z,13.30
2022-12-11T12:46:03.876Z,12.93
2022-12-11T12:48:33.018Z,14.52
2022-12-11T12:51:03.744Z,13.68
2022-12-11T12:53:35.051Z,15.15
2022-12-11T12:56:04.270Z,13.93
2022-12-11T12:58:41.168Z,12.63
2022-12-11T13:01:12.161Z,13.07
2022-12-11T13:03:58.398Z,12.93
2022-12-11T13:06:35.224Z,13.80
2022-12-11T13:09:17.925Z,14.40
2022-12-11T13:11:47.141Z,11.88
2022-12-11T13:14:28.463Z,12.23
2022-12-11T13:17:07.391Z,13.35
2022-12-11T13:19:42.065Z,13.25
2022-12-11T13:22:23.443Z,12.95
2022-12-11T13:24:59.535Z,13.25
2022-12-11T13:27:37.453Z,13.18
2022-12-11T13:30:08.081Z,14.88
2022-12-11T13:32:36.741Z,13.93
2022-12-11T13:35:06.634Z,13.27
2022-12-11T13:37:38.234Z,12.90
2022-12-11T13:40:10.060Z,14.10
2022-12-11T13:42:40.729Z,13.43
2022-12-11T13:45:10.000Z,13.60
2022-12-11T13:47:39.054Z,13.90
2022-12-11T13:50:17.093Z,13.55
2022-12-11T13:52:55.642Z,12.40
2022-12-11T13:55:25.646Z,14.18
2022-12-11T13:57:54.011Z,14.48
2022-12-11T14:00:27.613Z,14.30
2022-12-11T14:03:01.281Z,14.02
2022-12-11T14:05:31.339Z,14.63
2022-12-11T14:08:04.016Z,13.80
2022-12-11T14:10:33.590Z,13.75
2022-12-11T14:13:03.337Z,13.20
2022-12-11T14:15:32.295Z,12.27
2022-12-11T14:18:01.157Z,12.15
2022-12-11T14:20:30.833Z,13.52
2022-12-11T14:23:24.260Z,12.02
2022-12-11T14:25:56.322Z,14.48
2022-12-11T14:28:27.539Z,12.30
2022-12-11T14:30:58.954Z,11.65
2022-12-11T14:33:28.884Z,11.70
2022-12-11T14:35:57.432Z,12.07
2022-12-11T14:38:31.830Z,11.90
2022-12-11T14:41:01.696Z,11.23
2022-12-11T14:43:32.240Z,12.40
2022-12-11T14:46:02.069Z,12.02
2022-12-11T14:48:32.356Z,13.88
2022-12-11T14:51:02.142Z,12.90
2022-12-11T14:53:34.655Z,13.32
2022-12-11T14:56:04.290Z,13.90
2022-12-11T14:58:33.006Z,13.52
2022-12-11T15:01:04.206Z,16.02
2022-12-11T15:03:39.064Z,13.57
2022-12-11T15:06:25.828Z,13.90
2022-12-11T15:08:59.227Z,14.70
2022-12-11T15:11:33.157Z,14.02
2022-12-11T15:14:03.169Z,13.52
2022-12-11T15:16:34.691Z,14.82
2022-12-11T15:19:03.616Z,12.55
2022-12-11T15:21:32.565Z,14.45
2022-12-11T15:24:03.482Z,13.80
2022-12-11T15:26:35.597Z,14.38
2022-12-11T15:29:25.299Z,14.15
2022-12-11T15:32:00.579Z,14.30
2022-12-11T15:34:33.754Z,13.27
2022-12-11T15:37:02.911Z,14.27
2022-12-11T15:39:32.573Z,13.85
2022-12-11T15:42:00.947Z,14.23
2022-12-11T15:44:38.402Z,14.20
2022-12-11T15:47:13.212Z,14.80
2022-12-11T15:49:42.001Z,14.88
2022-12-11T15:52:10.555Z,13.68
2022-12-11T15:54:40.482Z,13.48
2022-12-11T15:57:14.623Z,14.13
2022-12-11T15:59:43.086Z,12.82
2022-12-11T16:02:13.890Z,13.57
2022-12-11T16:04:44.330Z,13.38
2022-12-11T16:07:16.847Z,12.70
2022-12-11T16:09:46.602Z,13.07
2022-12-11T16:12:15.311Z,13.68
2022-12-11T16:14:43.745Z,14.15
2022-12-11T16:17:14.111Z,14.57
2022-12-11T16:19:43.042Z,14.15
2022-12-11T16:22:12.093Z,15.05
2022-12-11T16:24:41.081Z,13.63
2022-12-11T16:27:10.788Z,14.32
2022-12-11T16:29:40.287Z,13.35
2022-12-11T16:32:09.537Z,14.38
2022-12-11T16:34:38.318Z,13.65
2022-12-11T16:37:07.100Z,13.48
2022-12-11T16:39:36.724Z,13.75
2022-12-11T16:42:05.311Z,15.68
2022-12-11T16:44:39.555Z,16.17
2022-12-11T16:47:15.641Z,15.18
2022-12-11T16:49:44.060Z,15.65
2022-12-11T16:52:15.354Z,15.27
2022-12-11T16:54:47.403Z,15.80
2022-12-11T16:57:15.801Z,16.15
2022-12-11T16:59:45.506Z,14.93
2022-12-11T17:02:16.748Z,15.10
2022-12-11T17:04:50.681Z,15.80
2022-12-11T17:07:22.395Z,14.90
2022-12-11T17:09:50.773Z,16.80
2022-12-11T17:12:23.053Z,16.33
2022-12-11T17:14:52.756Z,16.75
2022-12-11T17:17:21.053Z,16.23
2022-12-11T17:19:57.577Z,15.68
2022-12-11T17:22:26.975Z,15.95
2022-12-11T17:24:55.440Z,16.05
2022-12-11T17:27:23.894Z,16.50
2022-12-11T17:29:53.758Z,16.75
2022-12-11T17:32:22.225Z,16.10
2022-12-11T17:34:50.579Z,16.40
2022-12-11T17:37:19.783Z,18.42
2022-12-11T17:39:48.199Z,18.15
2022-12-11T17:42:16.567Z,19.00
2022-12-11T17:44:46.336Z,17.92
2022-12-11T17:47:16.128Z,16.90
2022-12-11T17:49:44.623Z,16.25
2022-12-11T17:52:13.158Z,16.67
2022-12-11T17:54:42.075Z,16.42
2022-12-11T17:57:10.480Z,14.43
2022-12-11T17:59:56.044Z,16.05
2022-12-11T18:02:25.961Z,17.02
2022-12-11T18:04:55.931Z,16.25
2022-12-11T18:07:25.138Z,16.95
2022-12-11T18:09:53.462Z,15.77
2022-12-11T18:12:21.737Z,16.73
2022-12-11T18:14:50.084Z,15.57
2022-12-11T18:17:18.396Z,16.75
2022-12-11T18:19:48.030Z,16.08
2022-12-11T18:22:17.888Z,16.83
2022-12-11T18:24:46.176Z,16.17
2022-12-11T18:27:15.070Z,16.38
2022-12-11T18:29:43.399Z,17.38
2022-12-11T18:32:11.886Z,16.48
2022-12-11T18:34:40.207Z,16.67
2022-12-11T18:37:10.055Z,16.42
2022-12-11T18:39:38.428Z,16.60
2022-12-11T18:42:35.245Z,17.15
2022-12-11T18:44:55.140Z,19.38
2022-12-11T18:47:23.435Z,17.17
2022-12-11T18:49:54.034Z,19.48
2022-12-11T18:52:23.732Z,17.70
2022-12-11T18:54:52.242Z,18.05
2022-12-11T18:57:21.624Z,16.77
2022-12-11T18:59:52.957Z,17.42
2022-12-11T19:02:21.561Z,16.75
2022-12-11T19:04:49.955Z,16.90
2022-12-11T19:07:18.250Z,16.63
2022-12-11T19:09:48.419Z,16.70
2022-12-11T19:12:17.171Z,16.73
2022-12-11T19:14:45.526Z,17.40
2022-12-11T19:17:13.977Z,17.83
2022-12-11T19:19:43.143Z,16.42
2022-12-11T19:22:11.463Z,17.42
2022-12-11T19:24:39.814Z,16.85
2022-12-11T19:27:13.399Z,17.00
2022-12-11T19:29:42.349Z,15.30
2022-12-11T19:32:10.773Z,17.25
2022-12-11T19:34:39.400Z,16.70
2022-12-11T19:37:07.751Z,17.58
2022-12-11T19:39:36.309Z,17.48
2022-12-11T19:42:04.826Z,17.45
2022-12-11T19:44:34.554Z,17.10
2022-12-11T19:47:02.905Z,18.48
2022-12-11T19:49:31.345Z,17.42
2022-12-11T19:51:59.707Z,16.75
2022-12-11T19:54:27.972Z,17.60
2022-12-11T19:56:56.420Z,17.90
2022-12-11T19:59:24.852Z,18.17
2022-12-11T20:01:54.664Z,17.95
2022-12-11T20:04:23.047Z,16.50
2022-12-11T20:06:51.539Z,18.08
2022-12-11T20:09:19.978Z,28.92
2022-12-11T20:11:48.531Z,36.80
2022-12-11T20:14:21.686Z,34.67
2022-12-11T20:19:39.819Z,18.90
2022-12-11T20:22:08.974Z,24.60
2022-12-11T20:24:37.356Z,22.50
2022-12-11T20:27:05.963Z,20.00
2022-12-11T20:29:34.344Z,17.40
2022-12-11T20:32:02.761Z,16.65
2022-12-11T20:34:31.222Z,17.90
2022-12-11T20:37:01.165Z,17.63
2022-12-11T20:39:31.861Z,17.58
2022-12-11T20:42:01.136Z,18.95
2022-12-11T20:44:29.469Z,16.65
2022-12-11T20:46:57.827Z,16.33
2022-12-11T20:49:26.158Z,16.35
2022-12-11T20:51:54.444Z,16.70
2022-12-11T20:54:24.323Z,17.08
2022-12-11T20:56:54.759Z,15.95
2022-12-11T20:59:23.156Z,17.15
2022-12-11T21:01:51.531Z,15.70
2022-12-11T21:04:19.917Z,16.63
2022-12-11T21:06:55.044Z,17.77
2022-12-11T21:09:26.558Z,22.88
2022-12-11T21:11:55.030Z,19.00
2022-12-11T21:14:23.507Z,18.77
2022-12-11T21:16:51.896Z,19.50
2022-12-11T21:19:21.127Z,17.92
2022-12-11T21:21:49.849Z,16.58
2022-12-11T21:24:19.321Z,20.13
2022-12-11T21:26:49.307Z,17.15
2022-12-11T21:29:18.166Z,16.55
2022-12-11T21:31:46.597Z,17.88
2022-12-11T21:34:25.072Z,16.42
2022-12-11T21:36:57.044Z,17.10
2022-12-11T21:39:25.873Z,18.02
2022-12-11T21:41:55.668Z,16.45
2022-12-11T21:47:25.737Z,16.60
2022-12-11T21:49:54.024Z,17.73
2022-12-11T21:52:22.372Z,16.67
2022-12-11T21:54:56.491Z,16.23
2022-12-11T21:57:26.974Z,16.80
2022-12-11T22:00:20.509Z,16.40
2022-12-11T22:02:51.106Z,16.52
2022-12-11T22:05:22.106Z,18.67
2022-12-11T22:07:54.756Z,17.15
2022-12-11T22:10:24.853Z,17.10
2022-12-11T22:12:56.493Z,16.45
2022-12-11T22:15:26.223Z,16.27
2022-12-11T22:17:54.509Z,16.58
2022-12-11T22:20:22.784Z,17.40
2022-12-11T22:22:51.399Z,16.88
2022-12-11T22:25:19.746Z,16.80
2022-12-11T22:27:48.124Z,17.33
2022-12-11T22:30:17.836Z,19.15
2022-12-11T22:32:46.151Z,17.60
2022-12-11T22:35:14.783Z,18.27
2022-12-11T22:37:44.279Z,17.27
2022-12-11T22:40:12.709Z,16.92
2022-12-11T22:42:45.851Z,16.13
2022-12-11T22:45:14.372Z,17.27
2022-12-11T22:47:44.248Z,16.73
2022-12-11T22:50:13.582Z,16.02
2022-12-11T22:52:42.005Z,16.30
2022-12-11T22:55:10.964Z,16.20
2022-12-11T22:57:39.845Z,15.35
2022-12-11T23:00:09.575Z,16.05
2022-12-11T23:02:38.620Z,15.90
2022-12-11T23:05:08.990Z,16.35
2022-12-11T23:07:38.077Z,16.73
2022-12-11T23:10:07.447Z,16.08
2022-12-11T23:12:35.758Z,16.23
2022-12-11T23:15:04.163Z,15.65
2022-12-11T23:17:32.465Z,15.00
2022-12-11T23:20:03.593Z,16.02
2022-12-11T23:22:33.670Z,16.52
2022-12-11T23:25:02.191Z,16.27
2022-12-11T23:27:30.637Z,15.73
2022-12-11T23:29:59.592Z,15.63
2022-12-11T23:32:30.706Z,16.75
2022-12-11T23:34:59.088Z,14.65
2022-12-11T23:37:27.635Z,15.55
2022-12-11T23:39:57.427Z,14.98
2022-12-11T23:42:25.783Z,16.38
2022-12-11T23:44:54.056Z,17.10
2022-12-11T23:47:22.504Z,15.82
2022-12-11T23:49:54.052Z,15.55
2022-12-11T23:52:22.507Z,16.67
2022-12-11T23:54:52.787Z,16.02
2022-12-11T23:57:23.018Z,15.00
2022-12-11T23:59:51.299Z,15.50
